KTOA/TOA METAR and TAF weather

Enter ICAO airport designator
Station Type Date Time Source
KTOA METAR 2019/09/20 19:47 UTC NOAA

KTOA 201947Z 27011KT 10SM SCT016 SCT028 25/17 A2988


Station Type Date Time Source
KTOA Decoded METAR 2019/09/20 19:47 UTC NOAA

Torrance, Zamperini Field Airport, CA, United States (KTOA) 33-48N 118-20W
Sep 20, 2019 - 03:47 PM EDT / 2019.09.20 1947 UTC
Wind: from the W (270 degrees) at 13 MPH (11 KT):0
Visibility: 10 mile(s):0
Sky conditions: partly cloudy
Temperature: 77 F (25 C)
Dew Point: 62 F (17 C)
Relative Humidity: 61%
Pressure (altimeter): 29.88 in. Hg (1011 hPa)
ob: KTOA 201947Z 27011KT 10SM SCT016 SCT028 25/17 A2988
cycle: 20

Station Type Date Time Source
KTOA TAF UTC NOAA

Error!

Example: see airport list